AirNav   Air Wisconsin Up To $57,000 Bonus
 
 642 users online  

3A4 Southeast Greensboro Airport
Greensboro, North Carolina, USA

GOING TO GREENSBORO?


FAA INFORMATION EFFECTIVE 04 NOVEMBER 2021

Location

FAA Identifier: 3A4
Lat/Long: 35-56-31.0000N 079-41-07.8000W
35-56.516667N 079-41.130000W
35.9419444,-79.6855000
(estimated)
Elevation: 739 ft. / 225 m (estimated)
Variation: 06W (1985)
From city: 8 miles SE of GREENSBORO, NC
Time zone: UTC -4 (UTC -5 during Standard Time)
Zip code: 27233

Airport Operations

Airport use: Open to the public
Activation date: 07/1979
Control tower: no
ARTCC: ATLANTA CENTER
FSS: RALEIGH FLIGHT SERVICE STATION
NOTAMs facility: RDU (NOTAM-D service available)
Attendance: 0700 TO 1700
Wind indicator: lighted
Segmented circle: no
Lights: ACTVT MIRL RWY 17/35, 5 CLICKS ONLY - CTAF MORE THAN 5 LOCK OUT CTL FOR 10 MIN.

Airport Communications

CTAF/UNICOM: 122.8
WX ASOS at BUY (12 nm NE): 135.325 (336-570-9813)
WX ASOS at GSO (16 nm NW): 128.55 (336-393-0168)
WX AWOS-3 at SCR (17 nm SE): 125.775 (919-663-1252)

Nearby radio navigation aids

VOR radial/distance  VOR name  Freq  Var
LIBr339/8.6LIBERTY VORTAC113.0003W
GSOr117/15.4GREENSBORO VORTAC116.2003W

 
NDB name  Hdg/Dist  Freq  Var  ID
ALAMM254/5.336108WHB .... -...
SLAMMER179/26.642307WSIF ... .. ..-.
PERSON248/34.822008WHUR .... ..- .-.

Airport Services

Parking: tiedowns
Airframe service: MAJOR
Powerplant service: MAJOR
Bottled oxygen: NONE
Bulk oxygen: NONE

Runway Information

Runway 17/35

Dimensions: 3063 x 30 ft. / 934 x 9 m
Surface: asphalt, in good condition
Weight bearing capacity: 
Single wheel: 8.0
Runway edge lights: medium intensity
ONLY TWO END LGTS EACH SIDE.
Runway edge markings: RY NUMBERS SMALLER THAN STANDARD.
RUNWAY 17  RUNWAY 35
Latitude: 35-56.759885N35-56.273913N
Longitude: 079-41.214925W079-41.046195W
Elevation: 672.0 ft.739.0 ft.
Traffic pattern: leftleft
Runway heading: 170 magnetic, 164 true350 magnetic, 344 true
Markings: NSTD, in good conditionNSTD, in good condition
Obstructions: 32 ft. trees, 252 ft. from runway, 43 ft. left of centerline, 1:1 slope to clear
HAS 13 FT TREES 0-200 FT FM THR, OFFSET 62 FT R OF CNTRLN. AND 42 FT TREES 0-200 FT FM THR, OFFSET 53 FT L OF CNTRLN.
51 ft. trees, 200 ft. from runway
NMRS 53 FT TREES 100-200 FT FM THR BOTH SIDES OF CNTRLN.

Airport Ownership and Management from official FAA records

Ownership: Privately-owned
Owner: JENNIFER WARD AND ANDREW WILLIAMS
3701 BALD EAGLE DRIVE
GREENSBORO, NC 27410-0007
Phone (336) 215-9056
Manager: EDWARD RUCINSKI
5816 LIBERTY ROAD
CLIMAX, NC 27233-8088
Phone 336-674-9999
FAX NR- 336-674-9943

Airport Operational Statistics

Aircraft based on the field: 24
Single engine airplanes: 19
Multi engine airplanes: 5
    
Aircraft operations: avg 105/week *
55% local general aviation
36% transient general aviation
9% military
* for 12-month period ending 04 May 2019

Additional Remarks

RWY 17 UPHILL LNDG PREFERRED.
NMRS +50 FT TREES IN THE APCHS & ALONG THE SIDES OF THE RWY; NMRS +15 FT TREES IN THE PRIM SFC.
SVC AFT HRS AND EMERG CTC NR 336-500-1370.
RWY 17 HAS 50 FT DROP OFF 60 FT FROM RWY END OFFSET 30 FT RIGHT OF CENTERLINE
FOR CD CTC WASHINGTON ARTCC AT 703-771-3587.

Instrument Procedures

There are no published instrument procedures at 3A4.

Some nearby airports with instrument procedures:

2A5 - Causey Airport (4 nm SE)
KBUY - Burlington-Alamance Regional Airport (12 nm NE)
KGSO - Piedmont Triad International Airport (16 nm NW)
KSCR - Siler City Municipal Airport (17 nm SE)
KHBI - Asheboro Regional Airport (20 nm SW)
 
Loc | Ops | Rwys | IFR | FBO | Links
Com | Nav | Svcs | Stats | Notes
Area around 3A4 (Southeast Greensboro Airport)
 
Road maps at: MapQuest Bing Google
 
Aerial photo
WARNING: Photo may not be current or correct
Aerial photo of 3A4 (Southeast Greensboro Airport)
Photo by Michael Eversole
Photo taken 07-Feb-2015
from 3,500 ft looking north.

Do you have a better or more recent aerial photo of Southeast Greensboro Airport that you would like to share? If so, please send us your photo.

 
Sectional chart

 
Airport distance calculator
Flying to Southeast Greensboro Airport? Find the distance to fly.

From to 3A4

Sunrise and sunset
Times for 01-Dec-2021
 Local
(UTC-5)
 Zulu
(UTC)
Morning civil twilight06:4411:44
Sunrise07:1212:12
Sunset17:0422:04
Evening civil twilight17:3222:32

Current date and time
Zulu (UTC)  01-Dec-2021 06:50:42
Local (UTC-5)  01-Dec-2021 01:50:42
 
METAR
KBUY 
12nm NE 
010554Z AUTO 00000KT 10SM CLR 01/M03 A3011 RMK AO2 SLP199 T00111028 10100 21006 50001
KGSO 
16nm NW 
010554Z 26008KT 10SM CLR 05/M02 A3011 RMK AO2 SLP196 T00501017 10089 20033 50000
KSCR 
17nm SE 
010635Z AUTO 00000KT 10SM CLR M02/M03 A3014 RMK AO2 T10171032
KHBI 
20nm SW 
010635Z AUTO 00000KT 10SM CLR 01/M03 A3015 RMK AO2 T00131035
TAF
KGSO 
16nm NW 
010520Z 0106/0206 VRB03KT P6SM FEW250 FM011700 18004KT P6SM BKN200 FM020400 22003KT P6SM SCT150
NOTAMs
Click for the latest NOTAMs
NOTAMs are issued by the DoD/FAA and will open in a separate window not controlled by AirNav.

 

 
 

Would you like to see your business listed on this page?

 If your business provides an interesting product or service to pilots, flight crews, aircraft, or users of the Southeast Greensboro Airport, you should consider listing it here.  To start the listing process, click on the button below
 
Add a business
 

Other Pages about Southeast Greensboro Airport

Update a link
 
Copyright © AirNav, LLC. All rights reserved. Privacy Policy  Contact